sensor_id;sensor_type;location;lat;lon;timestamp;temperature;humidity
2729;DHT22;1372;47.956;7.830;2023-12-14T00:00:11;8.30;99.90
2729;DHT22;1372;47.956;7.830;2023-12-14T00:02:40;8.20;99.90
2729;DHT22;1372;47.956;7.830;2023-12-14T00:05:09;8.30;99.90
2729;DHT22;1372;47.956;7.830;2023-12-14T00:07:38;8.30;99.90
2729;DHT22;1372;47.956;7.830;2023-12-14T00:10:08;8.30;99.90
2729;DHT22;1372;47.956;7.830;2023-12-14T00:12:37;8.50;99.90
2729;DHT22;1372;47.956;7.830;2023-12-14T00:15:06;8.50;99.90
2729;DHT22;1372;47.956;7.830;2023-12-14T00:17:38;8.40;99.90
2729;DHT22;1372;47.956;7.830;2023-12-14T00:20:08;8.30;99.90
2729;DHT22;1372;47.956;7.830;2023-12-14T00:22:38;8.20;99.90
2729;DHT22;1372;47.956;7.830;2023-12-14T00:25:07;8.20;99.90
2729;DHT22;1372;47.956;7.830;2023-12-14T00:27:36;8.40;99.90
2729;DHT22;1372;47.956;7.830;2023-12-14T00:30:05;8.50;99.90
2729;DHT22;1372;47.956;7.830;2023-12-14T00:32:37;8.40;99.90
2729;DHT22;1372;47.956;7.830;2023-12-14T00:35:06;8.30;99.90
2729;DHT22;1372;47.956;7.830;2023-12-14T00:37:37;8.30;99.90
2729;DHT22;1372;47.956;7.830;2023-12-14T00:40:07;8.30;99.90
2729;DHT22;1372;47.956;7.830;2023-12-14T00:42:36;8.40;99.90
2729;DHT22;1372;47.956;7.830;2023-12-14T00:45:07;8.40;99.90
2729;DHT22;1372;47.956;7.830;2023-12-14T00:47:38;8.30;99.90
2729;DHT22;1372;47.956;7.830;2023-12-14T00:50:08;8.30;99.90
2729;DHT22;1372;47.956;7.830;2023-12-14T00:52:39;8.20;99.90
2729;DHT22;1372;47.956;7.830;2023-12-14T00:55:08;8.20;99.90
2729;DHT22;1372;47.956;7.830;2023-12-14T00:57:37;8.30;99.90
2729;DHT22;1372;47.956;7.830;2023-12-14T01:02:55;8.50;99.90
2729;DHT22;1372;47.956;7.830;2023-12-14T01:05:24;8.40;99.90
2729;DHT22;1372;47.956;7.830;2023-12-14T01:07:53;8.40;99.90
2729;DHT22;1372;47.956;7.830;2023-12-14T01:10:22;8.30;99.90
2729;DHT22;1372;47.956;7.830;2023-12-14T01:12:50;8.30;99.90
2729;DHT22;1372;47.956;7.830;2023-12-14T01:15:19;8.30;99.90
2729;DHT22;1372;47.956;7.830;2023-12-14T01:17:51;8.40;99.90
2729;DHT22;1372;47.956;7.830;2023-12-14T01:20:23;8.40;99.90
2729;DHT22;1372;47.956;7.830;2023-12-14T01:22:53;8.40;99.90
2729;DHT22;1372;47.956;7.830;2023-12-14T01:25:24;8.40;99.90
2729;DHT22;1372;47.956;7.830;2023-12-14T01:27:54;8.40;99.90
2729;DHT22;1372;47.956;7.830;2023-12-14T01:30:22;8.40;99.90
2729;DHT22;1372;47.956;7.830;2023-12-14T01:32:51;8.40;99.90
2729;DHT22;1372;47.956;7.830;2023-12-14T01:35:20;8.40;99.90
2729;DHT22;1372;47.956;7.830;2023-12-14T01:37:50;8.40;99.90
2729;DHT22;1372;47.956;7.830;2023-12-14T01:40:19;8.40;99.90
2729;DHT22;1372;47.956;7.830;2023-12-14T01:42:48;8.40;99.90
2729;DHT22;1372;47.956;7.830;2023-12-14T01:45:19;8.40;99.90
2729;DHT22;1372;47.956;7.830;2023-12-14T01:47:47;8.50;99.90
2729;DHT22;1372;47.956;7.830;2023-12-14T01:50:21;8.50;99.90
2729;DHT22;1372;47.956;7.830;2023-12-14T01:52:51;8.40;99.90
2729;DHT22;1372;47.956;7.830;2023-12-14T01:55:22;8.30;99.90
2729;DHT22;1372;47.956;7.830;2023-12-14T01:57:54;8.30;99.90
2729;DHT22;1372;47.956;7.830;2023-12-14T02:00:34;8.30;99.90
2729;DHT22;1372;47.956;7.830;2023-12-14T02:03:05;8.30;99.90
2729;DHT22;1372;47.956;7.830;2023-12-14T02:05:36;8.30;99.90
2729;DHT22;1372;47.956;7.830;2023-12-14T02:08:08;8.30;99.90
2729;DHT22;1372;47.956;7.830;2023-12-14T02:10:39;8.30;99.90
2729;DHT22;1372;47.956;7.830;2023-12-14T02:13:08;8.30;99.90
2729;DHT22;1372;47.956;7.830;2023-12-14T02:15:37;8.40;99.90
2729;DHT22;1372;47.956;7.830;2023-12-14T02:18:07;8.40;99.90
2729;DHT22;1372;47.956;7.830;2023-12-14T02:20:36;8.20;99.90
2729;DHT22;1372;47.956;7.830;2023-12-14T02:23:06;8.20;99.90
2729;DHT22;1372;47.956;7.830;2023-12-14T02:25:47;8.30;99.90
2729;DHT22;1372;47.956;7.830;2023-12-14T02:28:16;8.20;99.90
2729;DHT22;1372;47.956;7.830;2023-12-14T02:30:44;8.10;99.90
2729;DHT22;1372;47.956;7.830;2023-12-14T02:33:13;8.10;99.90
2729;DHT22;1372;47.956;7.830;2023-12-14T02:35:42;8.10;99.90
2729;DHT22;1372;47.956;7.830;2023-12-14T02:38:13;8.10;99.90
2729;DHT22;1372;47.956;7.830;2023-12-14T02:40:41;8.10;99.90
2729;DHT22;1372;47.956;7.830;2023-12-14T02:43:10;8.20;99.90
2729;DHT22;1372;47.956;7.830;2023-12-14T02:45:42;8.20;99.90
2729;DHT22;1372;47.956;7.830;2023-12-14T02:48:11;8.20;99.90
2729;DHT22;1372;47.956;7.830;2023-12-14T02:50:42;8.20;99.90
2729;DHT22;1372;47.956;7.830;2023-12-14T02:53:13;8.20;99.90
2729;DHT22;1372;47.956;7.830;2023-12-14T02:55:42;8.30;99.90
2729;DHT22;1372;47.956;7.830;2023-12-14T02:58:13;8.30;99.90
2729;DHT22;1372;47.956;7.830;2023-12-14T03:00:42;8.20;99.90
2729;DHT22;1372;47.956;7.830;2023-12-14T03:03:12;8.20;99.90
2729;DHT22;1372;47.956;7.830;2023-12-14T03:05:48;8.20;99.90
2729;DHT22;1372;47.956;7.830;2023-12-14T03:08:18;8.10;99.90
2729;DHT22;1372;47.956;7.830;2023-12-14T03:10:47;8.10;99.90
2729;DHT22;1372;47.956;7.830;2023-12-14T03:13:16;8.10;99.90
2729;DHT22;1372;47.956;7.830;2023-12-14T03:15:45;8.00;99.90
2729;DHT22;1372;47.956;7.830;2023-12-14T03:18:16;8.00;99.90
2729;DHT22;1372;47.956;7.830;2023-12-14T03:20:45;7.90;99.90
2729;DHT22;1372;47.956;7.830;2023-12-14T03:23:18;7.90;99.90
2729;DHT22;1372;47.956;7.830;2023-12-14T03:25:47;7.90;99.90
2729;DHT22;1372;47.956;7.830;2023-12-14T03:28:16;7.90;99.90
2729;DHT22;1372;47.956;7.830;2023-12-14T03:30:45;7.90;99.90
2729;DHT22;1372;47.956;7.830;2023-12-14T03:33:14;7.90;99.90
2729;DHT22;1372;47.956;7.830;2023-12-14T03:35:42;7.90;99.90
2729;DHT22;1372;47.956;7.830;2023-12-14T03:38:13;7.80;99.90
2729;DHT22;1372;47.956;7.830;2023-12-14T03:40:46;7.80;99.90
2729;DHT22;1372;47.956;7.830;2023-12-14T03:43:15;7.90;99.90
2729;DHT22;1372;47.956;7.830;2023-12-14T03:45:43;7.90;99.90
2729;DHT22;1372;47.956;7.830;2023-12-14T03:48:12;7.90;99.90
2729;DHT22;1372;47.956;7.830;2023-12-14T03:50:41;7.80;99.90
2729;DHT22;1372;47.956;7.830;2023-12-14T03:53:10;7.80;99.90
2729;DHT22;1372;47.956;7.830;2023-12-14T03:55:38;7.90;99.90
2729;DHT22;1372;47.956;7.830;2023-12-14T03:58:11;8.00;99.90
2729;DHT22;1372;47.956;7.830;2023-12-14T04:00:40;8.00;99.90
2729;DHT22;1372;47.956;7.830;2023-12-14T04:03:09;8.00;99.90
2729;DHT22;1372;47.956;7.830;2023-12-14T04:05:38;8.00;99.90
2729;DHT22;1372;47.956;7.830;2023-12-14T04:08:07;8.00;99.90
2729;DHT22;1372;47.956;7.830;2023-12-14T04:10:36;8.00;99.90
2729;DHT22;1372;47.956;7.830;2023-12-14T04:13:05;8.00;99.90
2729;DHT22;1372;47.956;7.830;2023-12-14T04:15:36;8.10;99.90
2729;DHT22;1372;47.956;7.830;2023-12-14T04:18:09;8.00;99.90
2729;DHT22;1372;47.956;7.830;2023-12-14T04:20:38;8.00;99.90
2729;DHT22;1372;47.956;7.830;2023-12-14T04:23:07;7.90;99.90
2729;DHT22;1372;47.956;7.830;2023-12-14T04:25:38;7.90;99.90
2729;DHT22;1372;47.956;7.830;2023-12-14T04:28:07;7.90;99.90
2729;DHT22;1372;47.956;7.830;2023-12-14T04:30:38;8.00;99.90
2729;DHT22;1372;47.956;7.830;2023-12-14T04:33:09;8.00;99.90
2729;DHT22;1372;47.956;7.830;2023-12-14T04:35:38;7.90;99.90
2729;DHT22;1372;47.956;7.830;2023-12-14T04:38:07;7.90;99.90
2729;DHT22;1372;47.956;7.830;2023-12-14T04:40:36;7.80;99.90
2729;DHT22;1372;47.956;7.830;2023-12-14T04:43:07;7.70;99.90
2729;DHT22;1372;47.956;7.830;2023-12-14T04:45:37;7.60;99.90
2729;DHT22;1372;47.956;7.830;2023-12-14T04:48:08;7.60;99.90
2729;DHT22;1372;47.956;7.830;2023-12-14T04:50:37;7.60;99.90
2729;DHT22;1372;47.956;7.830;2023-12-14T04:53:06;7.60;99.90
2729;DHT22;1372;47.956;7.830;2023-12-14T04:55:35;7.70;99.90
2729;DHT22;1372;47.956;7.830;2023-12-14T04:58:04;7.80;99.90
2729;DHT22;1372;47.956;7.830;2023-12-14T05:00:33;7.90;99.90
2729;DHT22;1372;47.956;7.830;2023-12-14T05:03:03;7.90;99.90
2729;DHT22;1372;47.956;7.830;2023-12-14T05:05:32;7.90;99.90
2729;DHT22;1372;47.956;7.830;2023-12-14T05:08:03;7.90;99.90
2729;DHT22;1372;47.956;7.830;2023-12-14T05:10:32;7.90;99.90
2729;DHT22;1372;47.956;7.830;2023-12-14T05:13:03;7.80;99.90
2729;DHT22;1372;47.956;7.830;2023-12-14T05:15:32;7.80;99.90
2729;DHT22;1372;47.956;7.830;2023-12-14T05:18:03;7.80;99.90
2729;DHT22;1372;47.956;7.830;2023-12-14T05:20:32;7.80;99.90
2729;DHT22;1372;47.956;7.830;2023-12-14T05:23:01;7.80;99.90
2729;DHT22;1372;47.956;7.830;2023-12-14T05:25:30;7.70;99.90
2729;DHT22;1372;47.956;7.830;2023-12-14T05:27:59;7.80;99.90
2729;DHT22;1372;47.956;7.830;2023-12-14T05:30:29;7.80;99.90
2729;DHT22;1372;47.956;7.830;2023-12-14T05:32:58;7.80;99.90
2729;DHT22;1372;47.956;7.830;2023-12-14T05:35:28;7.80;99.90
2729;DHT22;1372;47.956;7.830;2023-12-14T05:38:01;7.90;99.90
2729;DHT22;1372;47.956;7.830;2023-12-14T05:40:30;7.90;99.90
2729;DHT22;1372;47.956;7.830;2023-12-14T05:42:58;7.90;99.90
2729;DHT22;1372;47.956;7.830;2023-12-14T05:45:29;7.90;99.90
2729;DHT22;1372;47.956;7.830;2023-12-14T05:47:58;7.70;99.90
2729;DHT22;1372;47.956;7.830;2023-12-14T05:50:29;7.80;99.90
2729;DHT22;1372;47.956;7.830;2023-12-14T05:52:58;7.80;99.90
2729;DHT22;1372;47.956;7.830;2023-12-14T05:55:31;7.80;99.90
2729;DHT22;1372;47.956;7.830;2023-12-14T05:58:03;7.80;99.90
2729;DHT22;1372;47.956;7.830;2023-12-14T06:00:34;7.80;99.90
2729;DHT22;1372;47.956;7.830;2023-12-14T06:03:04;7.90;99.90
2729;DHT22;1372;47.956;7.830;2023-12-14T06:05:34;7.90;99.90
2729;DHT22;1372;47.956;7.830;2023-12-14T06:08:03;7.90;99.90
2729;DHT22;1372;47.956;7.830;2023-12-14T06:10:32;7.90;99.90
2729;DHT22;1372;47.956;7.830;2023-12-14T06:13:01;7.90;99.90
2729;DHT22;1372;47.956;7.830;2023-12-14T06:15:30;7.90;99.90
2729;DHT22;1372;47.956;7.830;2023-12-14T06:17:59;7.90;99.90
2729;DHT22;1372;47.956;7.830;2023-12-14T06:20:30;7.90;99.90
2729;DHT22;1372;47.956;7.830;2023-12-14T06:23:00;7.90;99.90
2729;DHT22;1372;47.956;7.830;2023-12-14T06:25:29;7.80;99.90
2729;DHT22;1372;47.956;7.830;2023-12-14T06:27:59;7.80;99.90
2729;DHT22;1372;47.956;7.830;2023-12-14T06:30:27;7.70;99.90
2729;DHT22;1372;47.956;7.830;2023-12-14T06:32:56;7.70;99.90
2729;DHT22;1372;47.956;7.830;2023-12-14T06:35:25;7.70;99.90
2729;DHT22;1372;47.956;7.830;2023-12-14T06:37:52;7.60;99.90
2729;DHT22;1372;47.956;7.830;2023-12-14T06:40:25;7.60;99.90
2729;DHT22;1372;47.956;7.830;2023-12-14T06:42:56;7.60;99.90
2729;DHT22;1372;47.956;7.830;2023-12-14T06:45:25;7.60;99.90
2729;DHT22;1372;47.956;7.830;2023-12-14T06:48:00;7.60;99.90
2729;DHT22;1372;47.956;7.830;2023-12-14T06:50:30;7.50;99.90
2729;DHT22;1372;47.956;7.830;2023-12-14T06:53:04;7.50;99.90
2729;DHT22;1372;47.956;7.830;2023-12-14T06:55:35;7.60;99.90
2729;DHT22;1372;47.956;7.830;2023-12-14T06:58:04;7.70;99.90
2729;DHT22;1372;47.956;7.830;2023-12-14T07:00:41;7.60;99.90
2729;DHT22;1372;47.956;7.830;2023-12-14T07:03:12;7.50;99.90
2729;DHT22;1372;47.956;7.830;2023-12-14T07:05:41;7.60;99.90
2729;DHT22;1372;47.956;7.830;2023-12-14T07:08:10;7.60;99.90
2729;DHT22;1372;47.956;7.830;2023-12-14T07:10:44;7.70;99.90
2729;DHT22;1372;47.956;7.830;2023-12-14T07:13:13;7.70;99.90
2729;DHT22;1372;47.956;7.830;2023-12-14T07:15:42;7.70;99.90
2729;DHT22;1372;47.956;7.830;2023-12-14T07:18:13;7.80;99.90
2729;DHT22;1372;47.956;7.830;2023-12-14T07:20:43;7.80;99.90
2729;DHT22;1372;47.956;7.830;2023-12-14T07:23:14;7.80;99.90
2729;DHT22;1372;47.956;7.830;2023-12-14T07:25:44;7.70;99.90
2729;DHT22;1372;47.956;7.830;2023-12-14T07:28:13;7.70;99.90
2729;DHT22;1372;47.956;7.830;2023-12-14T07:30:41;7.70;99.90
2729;DHT22;1372;47.956;7.830;2023-12-14T07:33:12;7.70;99.90
2729;DHT22;1372;47.956;7.830;2023-12-14T07:35:42;7.60;99.90
2729;DHT22;1372;47.956;7.830;2023-12-14T07:38:12;7.70;99.90
2729;DHT22;1372;47.956;7.830;2023-12-14T07:40:46;7.70;99.90
2729;DHT22;1372;47.956;7.830;2023-12-14T07:43:17;7.70;99.90
2729;DHT22;1372;47.956;7.830;2023-12-14T07:45:46;7.70;99.90
2729;DHT22;1372;47.956;7.830;2023-12-14T07:48:15;7.70;99.90
2729;DHT22;1372;47.956;7.830;2023-12-14T07:50:44;7.70;99.90
2729;DHT22;1372;47.956;7.830;2023-12-14T07:53:14;7.80;99.90
2729;DHT22;1372;47.956;7.830;2023-12-14T07:55:43;7.80;99.90
2729;DHT22;1372;47.956;7.830;2023-12-14T07:58:13;7.80;99.90
2729;DHT22;1372;47.956;7.830;2023-12-14T08:00:42;7.80;99.90
2729;DHT22;1372;47.956;7.830;2023-12-14T08:03:10;7.80;99.90
2729;DHT22;1372;47.956;7.830;2023-12-14T08:05:39;7.90;99.90
2729;DHT22;1372;47.956;7.830;2023-12-14T08:08:08;7.90;99.90
2729;DHT22;1372;47.956;7.830;2023-12-14T08:10:37;8.00;99.90
2729;DHT22;1372;47.956;7.830;2023-12-14T08:13:06;8.00;99.90
2729;DHT22;1372;47.956;7.830;2023-12-14T08:15:36;8.00;99.90
2729;DHT22;1372;47.956;7.830;2023-12-14T08:18:09;8.00;99.90
2729;DHT22;1372;47.956;7.830;2023-12-14T08:20:38;8.00;99.90
2729;DHT22;1372;47.956;7.830;2023-12-14T08:23:10;8.00;99.90
2729;DHT22;1372;47.956;7.830;2023-12-14T08:25:39;8.00;99.90
2729;DHT22;1372;47.956;7.830;2023-12-14T08:28:10;8.00;99.90
2729;DHT22;1372;47.956;7.830;2023-12-14T08:30:43;8.00;99.90
2729;DHT22;1372;47.956;7.830;2023-12-14T08:33:12;8.10;99.90
2729;DHT22;1372;47.956;7.830;2023-12-14T08:35:41;8.10;99.90
2729;DHT22;1372;47.956;7.830;2023-12-14T08:38:13;8.10;99.90
2729;DHT22;1372;47.956;7.830;2023-12-14T08:40:44;8.10;99.90
2729;DHT22;1372;47.956;7.830;2023-12-14T08:43:13;8.20;99.90
2729;DHT22;1372;47.956;7.830;2023-12-14T08:45:46;8.20;99.90
2729;DHT22;1372;47.956;7.830;2023-12-14T08:48:19;8.20;99.90
2729;DHT22;1372;47.956;7.830;2023-12-14T08:50:48;8.30;99.90
2729;DHT22;1372;47.956;7.830;2023-12-14T08:53:17;8.20;99.90
2729;DHT22;1372;47.956;7.830;2023-12-14T08:55:46;8.20;99.90
2729;DHT22;1372;47.956;7.830;2023-12-14T08:58:15;8.20;99.90
2729;DHT22;1372;47.956;7.830;2023-12-14T09:00:45;8.20;99.90
2729;DHT22;1372;47.956;7.830;2023-12-14T09:03:14;8.20;99.90
2729;DHT22;1372;47.956;7.830;2023-12-14T09:05:45;8.10;99.90
2729;DHT22;1372;47.956;7.830;2023-12-14T09:08:14;8.20;99.90
2729;DHT22;1372;47.956;7.830;2023-12-14T09:10:43;8.20;99.90
2729;DHT22;1372;47.956;7.830;2023-12-14T09:13:12;8.10;99.90
2729;DHT22;1372;47.956;7.830;2023-12-14T09:15:41;8.10;99.90
2729;DHT22;1372;47.956;7.830;2023-12-14T09:18:11;8.20;99.90
2729;DHT22;1372;47.956;7.830;2023-12-14T09:20:43;8.20;99.90
2729;DHT22;1372;47.956;7.830;2023-12-14T09:23:12;8.20;99.90
2729;DHT22;1372;47.956;7.830;2023-12-14T09:25:40;8.20;99.90
2729;DHT22;1372;47.956;7.830;2023-12-14T09:28:10;8.20;99.90
2729;DHT22;1372;47.956;7.830;2023-12-14T09:30:39;8.30;99.90
2729;DHT22;1372;47.956;7.830;2023-12-14T09:33:12;8.30;99.90
2729;DHT22;1372;47.956;7.830;2023-12-14T09:35:41;8.20;99.90
2729;DHT22;1372;47.956;7.830;2023-12-14T09:38:11;8.20;99.90
2729;DHT22;1372;47.956;7.830;2023-12-14T09:40:43;8.30;99.90
2729;DHT22;1372;47.956;7.830;2023-12-14T09:43:12;8.40;99.90
2729;DHT22;1372;47.956;7.830;2023-12-14T09:45:43;8.40;99.90
2729;DHT22;1372;47.956;7.830;2023-12-14T09:48:15;8.50;99.90
2729;DHT22;1372;47.956;7.830;2023-12-14T09:50:47;8.50;99.90
2729;DHT22;1372;47.956;7.830;2023-12-14T09:53:17;8.40;99.90
2729;DHT22;1372;47.956;7.830;2023-12-14T09:55:46;8.50;99.90
2729;DHT22;1372;47.956;7.830;2023-12-14T09:58:15;8.50;99.90
2729;DHT22;1372;47.956;7.830;2023-12-14T10:00:47;8.40;99.90
2729;DHT22;1372;47.956;7.830;2023-12-14T10:03:22;8.50;99.90
2729;DHT22;1372;47.956;7.830;2023-12-14T10:05:53;8.50;99.90
2729;DHT22;1372;47.956;7.830;2023-12-14T10:08:23;8.50;99.90
2729;DHT22;1372;47.956;7.830;2023-12-14T10:10:56;8.60;99.90
2729;DHT22;1372;47.956;7.830;2023-12-14T10:13:36;8.60;99.90
2729;DHT22;1372;47.956;7.830;2023-12-14T10:16:06;8.60;99.90
2729;DHT22;1372;47.956;7.830;2023-12-14T10:18:37;8.70;99.90
2729;DHT22;1372;47.956;7.830;2023-12-14T10:21:09;8.70;99.90
2729;DHT22;1372;47.956;7.830;2023-12-14T10:23:39;8.70;99.90
2729;DHT22;1372;47.956;7.830;2023-12-14T10:26:08;8.70;99.90
2729;DHT22;1372;47.956;7.830;2023-12-14T10:28:39;8.80;99.90
2729;DHT22;1372;47.956;7.830;2023-12-14T10:31:09;8.90;99.90
2729;DHT22;1372;47.956;7.830;2023-12-14T10:33:42;9.00;99.90
2729;DHT22;1372;47.956;7.830;2023-12-14T10:36:12;9.00;99.90
2729;DHT22;1372;47.956;7.830;2023-12-14T10:38:43;9.00;99.90
2729;DHT22;1372;47.956;7.830;2023-12-14T10:41:13;9.00;99.90
2729;DHT22;1372;47.956;7.830;2023-12-14T10:43:47;8.90;99.90
2729;DHT22;1372;47.956;7.830;2023-12-14T10:46:23;8.90;99.90
2729;DHT22;1372;47.956;7.830;2023-12-14T10:48:54;8.80;99.90
2729;DHT22;1372;47.956;7.830;2023-12-14T10:51:26;8.80;99.90
2729;DHT22;1372;47.956;7.830;2023-12-14T10:53:55;8.80;99.90
2729;DHT22;1372;47.956;7.830;2023-12-14T10:56:25;8.80;99.90
2729;DHT22;1372;47.956;7.830;2023-12-14T10:58:56;8.80;99.90
2729;DHT22;1372;47.956;7.830;2023-12-14T11:01:27;8.70;99.90
2729;DHT22;1372;47.956;7.830;2023-12-14T11:03:59;8.80;99.90
2729;DHT22;1372;47.956;7.830;2023-12-14T11:06:30;8.80;99.90
2729;DHT22;1372;47.956;7.830;2023-12-14T11:09:01;8.80;99.90
2729;DHT22;1372;47.956;7.830;2023-12-14T11:11:41;8.80;99.90
2729;DHT22;1372;47.956;7.830;2023-12-14T11:14:11;8.80;99.90
2729;DHT22;1372;47.956;7.830;2023-12-14T11:16:41;8.80;99.90
2729;DHT22;1372;47.956;7.830;2023-12-14T11:19:30;8.80;99.90
2729;DHT22;1372;47.956;7.830;2023-12-14T11:22:23;8.80;99.90
2729;DHT22;1372;47.956;7.830;2023-12-14T11:24:55;8.80;99.90
2729;DHT22;1372;47.956;7.830;2023-12-14T11:27:28;8.90;99.90
2729;DHT22;1372;47.956;7.830;2023-12-14T11:30:02;8.80;99.90
2729;DHT22;1372;47.956;7.830;2023-12-14T11:32:31;8.80;99.90
2729;DHT22;1372;47.956;7.830;2023-12-14T11:35:02;8.90;99.90
2729;DHT22;1372;47.956;7.830;2023-12-14T11:37:32;8.80;99.90
2729;DHT22;1372;47.956;7.830;2023-12-14T11:40:03;8.70;99.90
2729;DHT22;1372;47.956;7.830;2023-12-14T11:42:37;8.80;99.90
2729;DHT22;1372;47.956;7.830;2023-12-14T11:45:06;8.80;99.90
2729;DHT22;1372;47.956;7.830;2023-12-14T11:47:35;8.80;99.90
2729;DHT22;1372;47.956;7.830;2023-12-14T11:50:07;8.80;99.90
2729;DHT22;1372;47.956;7.830;2023-12-14T11:52:39;8.80;99.90
2729;DHT22;1372;47.956;7.830;2023-12-14T11:55:10;8.70;99.90
2729;DHT22;1372;47.956;7.830;2023-12-14T11:57:39;8.80;99.90
2729;DHT22;1372;47.956;7.830;2023-12-14T12:00:11;8.70;99.90
2729;DHT22;1372;47.956;7.830;2023-12-14T12:02:41;8.60;99.90
2729;DHT22;1372;47.956;7.830;2023-12-14T12:05:11;8.70;99.90
2729;DHT22;1372;47.956;7.830;2023-12-14T12:07:46;8.70;99.90
2729;DHT22;1372;47.956;7.830;2023-12-14T12:10:15;8.70;99.90
2729;DHT22;1372;47.956;7.830;2023-12-14T12:12:44;8.70;99.90
2729;DHT22;1372;47.956;7.830;2023-12-14T12:15:13;8.70;99.90
2729;DHT22;1372;47.956;7.830;2023-12-14T12:17:41;8.70;99.90
2729;DHT22;1372;47.956;7.830;2023-12-14T12:20:14;8.70;99.90
2729;DHT22;1372;47.956;7.830;2023-12-14T12:22:43;8.70;99.90
2729;DHT22;1372;47.956;7.830;2023-12-14T12:25:12;8.80;99.90
2729;DHT22;1372;47.956;7.830;2023-12-14T12:27:41;8.70;99.90
2729;DHT22;1372;47.956;7.830;2023-12-14T12:30:14;8.70;99.90
2729;DHT22;1372;47.956;7.830;2023-12-14T12:32:42;8.80;99.90
2729;DHT22;1372;47.956;7.830;2023-12-14T12:35:13;8.80;99.90
2729;DHT22;1372;47.956;7.830;2023-12-14T12:37:42;8.80;99.90
2729;DHT22;1372;47.956;7.830;2023-12-14T12:40:11;8.90;99.90
2729;DHT22;1372;47.956;7.830;2023-12-14T12:42:45;8.80;99.90
2729;DHT22;1372;47.956;7.830;2023-12-14T12:45:15;8.80;99.90
2729;DHT22;1372;47.956;7.830;2023-12-14T12:47:45;8.90;99.90
2729;DHT22;1372;47.956;7.830;2023-12-14T12:50:15;8.90;99.90
2729;DHT22;1372;47.956;7.830;2023-12-14T12:52:47;8.90;99.90
2729;DHT22;1372;47.956;7.830;2023-12-14T12:55:17;8.90;99.90
2729;DHT22;1372;47.956;7.830;2023-12-14T12:57:46;9.00;99.90
2729;DHT22;1372;47.956;7.830;2023-12-14T13:00:16;8.90;99.90
2729;DHT22;1372;47.956;7.830;2023-12-14T13:02:45;8.90;99.90
2729;DHT22;1372;47.956;7.830;2023-12-14T13:05:16;8.90;99.90
2729;DHT22;1372;47.956;7.830;2023-12-14T13:07:45;8.90;99.90
2729;DHT22;1372;47.956;7.830;2023-12-14T13:10:15;8.90;99.90
2729;DHT22;1372;47.956;7.830;2023-12-14T13:12:53;8.90;99.90
2729;DHT22;1372;47.956;7.830;2023-12-14T13:15:23;8.90;99.90
2729;DHT22;1372;47.956;7.830;2023-12-14T13:17:53;9.00;99.90
2729;DHT22;1372;47.956;7.830;2023-12-14T13:20:25;8.90;99.90
2729;DHT22;1372;47.956;7.830;2023-12-14T13:22:54;8.90;99.90
2729;DHT22;1372;47.956;7.830;2023-12-14T13:25:23;9.00;99.90
2729;DHT22;1372;47.956;7.830;2023-12-14T13:27:53;9.10;99.90
2729;DHT22;1372;47.956;7.830;2023-12-14T13:30:22;9.10;99.90
2729;DHT22;1372;47.956;7.830;2023-12-14T13:32:53;9.10;99.90
2729;DHT22;1372;47.956;7.830;2023-12-14T13:35:22;9.10;99.90
2729;DHT22;1372;47.956;7.830;2023-12-14T13:37:53;9.10;99.90
2729;DHT22;1372;47.956;7.830;2023-12-14T13:40:25;9.10;99.90
2729;DHT22;1372;47.956;7.830;2023-12-14T13:42:54;9.00;99.90
2729;DHT22;1372;47.956;7.830;2023-12-14T13:45:32;9.10;99.90
2729;DHT22;1372;47.956;7.830;2023-12-14T13:48:01;9.10;99.90
2729;DHT22;1372;47.956;7.830;2023-12-14T13:50:30;9.00;99.90
2729;DHT22;1372;47.956;7.830;2023-12-14T13:53:03;9.10;99.90
2729;DHT22;1372;47.956;7.830;2023-12-14T13:55:32;9.00;99.90
2729;DHT22;1372;47.956;7.830;2023-12-14T13:58:00;9.00;99.90
2729;DHT22;1372;47.956;7.830;2023-12-14T14:00:29;9.10;99.90
2729;DHT22;1372;47.956;7.830;2023-12-14T14:03:00;9.10;99.90
2729;DHT22;1372;47.956;7.830;2023-12-14T14:05:29;9.10;99.90
2729;DHT22;1372;47.956;7.830;2023-12-14T14:07:58;9.00;99.90
2729;DHT22;1372;47.956;7.830;2023-12-14T14:10:28;9.00;99.90
2729;DHT22;1372;47.956;7.830;2023-12-14T14:12:58;9.00;99.90
2729;DHT22;1372;47.956;7.830;2023-12-14T14:15:27;9.00;99.90
2729;DHT22;1372;47.956;7.830;2023-12-14T14:17:56;9.00;99.90
2729;DHT22;1372;47.956;7.830;2023-12-14T14:20:25;9.00;99.90
2729;DHT22;1372;47.956;7.830;2023-12-14T14:22:54;9.00;99.90
2729;DHT22;1372;47.956;7.830;2023-12-14T14:25:30;8.90;99.90
2729;DHT22;1372;47.956;7.830;2023-12-14T14:27:59;8.90;99.90
2729;DHT22;1372;47.956;7.830;2023-12-14T14:30:28;8.90;99.90
2729;DHT22;1372;47.956;7.830;2023-12-14T14:32:59;8.90;99.90
2729;DHT22;1372;47.956;7.830;2023-12-14T14:35:28;8.80;99.90
2729;DHT22;1372;47.956;7.830;2023-12-14T14:38:03;8.80;99.90
2729;DHT22;1372;47.956;7.830;2023-12-14T14:40:35;8.80;99.90
2729;DHT22;1372;47.956;7.830;2023-12-14T14:43:04;8.70;99.90
2729;DHT22;1372;47.956;7.830;2023-12-14T14:45:33;8.80;99.90
2729;DHT22;1372;47.956;7.830;2023-12-14T14:48:02;8.70;99.90
2729;DHT22;1372;47.956;7.830;2023-12-14T14:50:32;8.70;99.90
2729;DHT22;1372;47.956;7.830;2023-12-14T14:53:01;8.60;99.90
2729;DHT22;1372;47.956;7.830;2023-12-14T14:55:30;8.60;99.90
2729;DHT22;1372;47.956;7.830;2023-12-14T14:58:03;8.60;99.90
2729;DHT22;1372;47.956;7.830;2023-12-14T15:00:32;8.60;99.90
2729;DHT22;1372;47.956;7.830;2023-12-14T15:03:06;8.60;99.90
2729;DHT22;1372;47.956;7.830;2023-12-14T15:05:37;8.50;99.90
2729;DHT22;1372;47.956;7.830;2023-12-14T15:08:06;8.40;99.90
2729;DHT22;1372;47.956;7.830;2023-12-14T15:10:35;8.40;99.90
2729;DHT22;1372;47.956;7.830;2023-12-14T15:13:05;8.40;99.90
2729;DHT22;1372;47.956;7.830;2023-12-14T15:15:34;8.50;99.90
2729;DHT22;1372;47.956;7.830;2023-12-14T15:18:05;8.50;99.90
2729;DHT22;1372;47.956;7.830;2023-12-14T15:20:34;8.50;99.90
2729;DHT22;1372;47.956;7.830;2023-12-14T15:23:03;8.50;99.90
2729;DHT22;1372;47.956;7.830;2023-12-14T15:25:33;8.50;99.90
2729;DHT22;1372;47.956;7.830;2023-12-14T15:28:01;8.50;99.90
2729;DHT22;1372;47.956;7.830;2023-12-14T15:30:32;8.50;99.90
2729;DHT22;1372;47.956;7.830;2023-12-14T15:33:01;8.50;99.90
2729;DHT22;1372;47.956;7.830;2023-12-14T15:35:32;8.50;99.90
2729;DHT22;1372;47.956;7.830;2023-12-14T15:38:01;8.50;99.90
2729;DHT22;1372;47.956;7.830;2023-12-14T15:40:30;8.50;99.90
2729;DHT22;1372;47.956;7.830;2023-12-14T15:42:59;8.50;99.90
2729;DHT22;1372;47.956;7.830;2023-12-14T15:45:35;8.50;99.90
2729;DHT22;1372;47.956;7.830;2023-12-14T15:48:03;8.50;99.90
2729;DHT22;1372;47.956;7.830;2023-12-14T15:50:35;8.40;99.90
2729;DHT22;1372;47.956;7.830;2023-12-14T15:53:05;8.40;99.90
2729;DHT22;1372;47.956;7.830;2023-12-14T15:55:36;8.40;99.90
2729;DHT22;1372;47.956;7.830;2023-12-14T15:58:05;8.40;99.90
2729;DHT22;1372;47.956;7.830;2023-12-14T16:00:36;8.30;99.90
2729;DHT22;1372;47.956;7.830;2023-12-14T16:03:06;8.20;99.90
2729;DHT22;1372;47.956;7.830;2023-12-14T16:05:35;8.30;99.90
2729;DHT22;1372;47.956;7.830;2023-12-14T16:08:08;8.20;99.90
2729;DHT22;1372;47.956;7.830;2023-12-14T16:10:37;8.20;99.90
2729;DHT22;1372;47.956;7.830;2023-12-14T16:13:06;8.00;99.90
2729;DHT22;1372;47.956;7.830;2023-12-14T16:15:47;8.00;99.90
2729;DHT22;1372;47.956;7.830;2023-12-14T16:18:35;7.90;99.90
2729;DHT22;1372;47.956;7.830;2023-12-14T16:21:07;7.90;99.90
2729;DHT22;1372;47.956;7.830;2023-12-14T16:23:50;8.00;99.90
2729;DHT22;1372;47.956;7.830;2023-12-14T16:26:28;7.90;99.90
2729;DHT22;1372;47.956;7.830;2023-12-14T16:28:57;8.00;99.90
2729;DHT22;1372;47.956;7.830;2023-12-14T16:31:27;8.00;99.90
2729;DHT22;1372;47.956;7.830;2023-12-14T16:33:56;8.00;99.90
2729;DHT22;1372;47.956;7.830;2023-12-14T16:36:28;8.00;99.90
2729;DHT22;1372;47.956;7.830;2023-12-14T16:38:57;8.00;99.90